Strafford, Missouri
Current Conditions -  °F | °C
As of 8:12 AM on Friday 19 Dec 2014 (Local Time) from KSGF Reporting Station
Overcast Overcast  
Wind Chill: 33°   Ceiling: 800
Heat Index: 37°   Visibility: 7mi
Dew Point: 35°   Wind: 5mph
Humidity: 93%   Direction: 120°ESE
Pressure: 30.22"   Gusts: NA
Location:  37.27°N, 93.12°W
Report Text: KSGF 191412Z 12004KT 7SM BKN008 OVC019 03/02 A3022 RMK AO2 T00280017
Loading
Personal Weather Stations






























Interactive Weather Map New forecast layout! Learn more

10-Day Weather Forecast

Advertisements
Track Severe Weather on mobile